createdAt,value
2018-12-12T00:02:32.609Z,23.67
2018-12-12T00:07:28.400Z,27.70
2018-12-12T00:12:23.210Z,21.00
2018-12-12T00:17:18.175Z,26.13
2018-12-12T00:22:13.040Z,18.90
2018-12-12T00:27:07.924Z,21.90
2018-12-12T00:32:02.702Z,23.83
2018-12-12T00:36:57.488Z,21.20
2018-12-12T00:41:52.300Z,25.37
2018-12-12T00:46:47.622Z,25.00
2018-12-12T00:51:42.831Z,21.93
2018-12-12T00:56:38.211Z,20.83
2018-12-12T01:01:33.004Z,25.43
2018-12-12T01:06:29.194Z,27.80
2018-12-12T01:11:30.525Z,27.33
2018-12-12T01:16:25.408Z,26.43
2018-12-12T01:21:20.863Z,29.63
2018-12-12T01:26:15.647Z,27.73
2018-12-12T01:31:10.417Z,27.77
2018-12-12T01:36:05.189Z,27.70
2018-12-12T01:41:00.010Z,36.13
2018-12-12T01:45:54.803Z,27.50
2018-12-12T01:50:49.763Z,28.17
2018-12-12T01:55:44.594Z,28.43
2018-12-12T02:00:39.406Z,28.17
2018-12-12T02:05:34.250Z,28.27
2018-12-12T02:10:29.425Z,29.17
2018-12-12T02:15:24.234Z,28.83
2018-12-12T02:20:19.026Z,30.87
2018-12-12T02:25:13.833Z,25.40
2018-12-12T02:30:09.122Z,30.30
2018-12-12T02:35:04.446Z,31.60
2018-12-12T02:39:59.253Z,28.63
2018-12-12T02:44:54.101Z,29.07
2018-12-12T02:49:48.915Z,32.37
2018-12-12T02:54:43.658Z,27.40
2018-12-12T02:59:38.597Z,26.53
2018-12-12T03:04:33.399Z,28.00
2018-12-12T03:09:28.171Z,27.90
2018-12-12T03:14:22.980Z,30.43
2018-12-12T03:19:17.772Z,26.57
2018-12-12T03:24:12.589Z,28.90
2018-12-12T03:29:07.383Z,29.70
2018-12-12T03:34:02.236Z,25.43
2018-12-12T03:38:57.097Z,30.90
2018-12-12T03:43:51.908Z,27.77
2018-12-12T03:48:46.734Z,27.20
2018-12-12T03:53:41.591Z,26.77
2018-12-12T03:58:36.384Z,30.97
2018-12-12T04:03:31.158Z,28.13
2018-12-12T04:08:26.316Z,33.67
2018-12-12T04:13:21.181Z,27.23
2018-12-12T04:18:16.014Z,36.17
2018-12-12T04:23:10.819Z,31.50
2018-12-12T04:28:05.637Z,27.33
2018-12-12T04:33:00.454Z,27.67
2018-12-12T04:37:55.227Z,30.07
2018-12-12T04:42:50.048Z,25.47
2018-12-12T04:47:44.833Z,34.30
2018-12-12T04:52:39.672Z,28.33
2018-12-12T04:57:34.491Z,32.40
2018-12-12T05:02:29.671Z,30.43
2018-12-12T05:07:24.514Z,29.37
2018-12-12T05:12:19.598Z,26.87
2018-12-12T05:17:14.494Z,26.47
2018-12-12T05:22:09.305Z,30.07
2018-12-12T05:27:04.127Z,31.93
2018-12-12T05:31:59.011Z,26.63
2018-12-12T05:36:57.782Z,29.70
2018-12-12T05:41:52.658Z,24.77
2018-12-12T05:46:47.514Z,31.97
2018-12-12T05:51:42.360Z,29.17
2018-12-12T05:56:37.208Z,28.67
2018-12-12T06:01:32.134Z,28.57
2018-12-12T06:06:27.157Z,31.13
2018-12-12T06:11:21.957Z,25.60
2018-12-12T06:16:16.724Z,31.97
2018-12-12T06:21:11.742Z,25.23
2018-12-12T06:26:06.546Z,26.13
2018-12-12T06:31:01.449Z,30.93
2018-12-12T06:35:56.260Z,32.70
2018-12-12T06:40:51.235Z,30.83
2018-12-12T06:45:46.036Z,35.30
2018-12-12T06:50:41.326Z,25.93
2018-12-12T06:55:36.130Z,30.47
2018-12-12T07:00:30.941Z,30.90
2018-12-12T07:10:47.073Z,33.23
2018-12-12T07:21:03.351Z,31.40
2018-12-12T07:27:22.649Z,26.40
2018-12-12T07:32:17.459Z,32.63
2018-12-12T07:37:12.338Z,28.87
2018-12-12T07:42:07.166Z,36.87
2018-12-12T07:47:02.367Z,28.87
2018-12-12T07:51:57.154Z,27.63
2018-12-12T08:02:13.761Z,27.60
2018-12-12T08:07:08.430Z,28.90
2018-12-12T08:12:03.151Z,35.13
2018-12-12T08:16:57.812Z,30.53
2018-12-12T08:21:52.500Z,32.57
2018-12-12T08:26:47.194Z,32.13
2018-12-12T08:31:41.867Z,34.63
2018-12-12T08:36:36.547Z,37.07
2018-12-12T08:41:33.011Z,40.77
2018-12-12T08:46:27.941Z,25.30
2018-12-12T08:51:22.722Z,22.37
2018-12-12T08:56:17.401Z,21.80
2018-12-12T09:01:12.085Z,22.53
2018-12-12T09:06:06.735Z,23.83
2018-12-12T09:11:01.456Z,18.90
2018-12-12T09:15:56.154Z,23.30
2018-12-12T09:20:51.011Z,27.93
2018-12-12T09:25:45.701Z,22.73
2018-12-12T09:30:40.364Z,25.87
2018-12-12T09:35:35.106Z,21.50
2018-12-12T09:40:30.112Z,26.90
2018-12-12T09:45:24.793Z,24.83
2018-12-12T09:50:20.047Z,18.90
2018-12-12T09:55:14.758Z,21.63
2018-12-12T10:00:09.740Z,24.70
2018-12-12T10:05:04.839Z,16.70
2018-12-12T10:09:59.640Z,20.63
2018-12-12T10:14:54.284Z,19.53
2018-12-12T10:19:49.023Z,18.93
2018-12-12T10:24:43.689Z,17.50
2018-12-12T10:29:38.459Z,14.53
2018-12-12T10:34:33.342Z,17.80
2018-12-12T10:39:28.038Z,17.87
2018-12-12T10:44:22.706Z,15.67
2018-12-12T10:49:17.558Z,14.87
2018-12-12T10:54:12.233Z,14.47
2018-12-12T10:59:06.894Z,15.53
2018-12-12T11:04:01.665Z,14.37
2018-12-12T11:08:56.373Z,13.60
2018-12-12T11:13:51.153Z,13.97
2018-12-12T11:18:45.809Z,15.17
2018-12-12T11:23:40.515Z,15.67
2018-12-12T11:28:35.320Z,15.00
2018-12-12T11:33:29.987Z,13.00
2018-12-12T11:38:24.673Z,15.47
2018-12-12T11:43:20.071Z,5.43
2018-12-12T11:48:14.756Z,5.17
2018-12-12T11:53:09.511Z,4.50
2018-12-12T11:58:04.179Z,6.37
2018-12-12T12:02:58.920Z,3.83
2018-12-12T12:07:53.538Z,5.10
2018-12-12T12:12:48.220Z,6.30
2018-12-12T12:17:42.876Z,5.40
2018-12-12T12:22:37.577Z,5.90
2018-12-12T12:27:32.224Z,5.80
2018-12-12T12:32:26.892Z,5.63
2018-12-12T12:37:21.729Z,6.70
2018-12-12T12:42:16.429Z,6.03
2018-12-12T12:47:11.122Z,6.40
2018-12-12T12:52:05.772Z,5.97
2018-12-12T12:57:00.481Z,3.83
2018-12-12T13:01:55.188Z,5.37
2018-12-12T13:06:49.859Z,3.93
2018-12-12T13:11:44.529Z,6.93
2018-12-12T13:16:39.217Z,5.23
2018-12-12T13:21:33.868Z,5.17
2018-12-12T13:26:28.557Z,10.37
2018-12-12T13:31:23.220Z,5.87
2018-12-12T13:36:17.962Z,5.17
2018-12-12T13:41:12.674Z,8.13
2018-12-12T13:46:07.514Z,7.50
2018-12-12T13:51:02.365Z,6.03
2018-12-12T13:55:57.067Z,6.20
2018-12-12T14:00:51.732Z,5.10
2018-12-12T14:05:46.452Z,5.07
2018-12-12T14:10:41.136Z,5.60
2018-12-12T14:15:35.911Z,7.17
2018-12-12T14:20:30.594Z,6.83
2018-12-12T14:25:25.246Z,5.03
2018-12-12T14:30:19.952Z,8.47
2018-12-12T14:35:14.623Z,6.17
2018-12-12T14:40:09.766Z,5.27
2018-12-12T14:45:05.184Z,5.57
2018-12-12T14:50:07.092Z,5.13
2018-12-12T14:55:02.965Z,5.50
2018-12-12T14:59:58.436Z,6.67
2018-12-12T15:04:53.113Z,7.83
2018-12-12T15:09:47.761Z,12.40
2018-12-12T15:14:42.442Z,6.37
2018-12-12T15:19:37.085Z,7.80
2018-12-12T15:24:33.453Z,7.60
2018-12-12T15:29:28.813Z,6.97
2018-12-12T15:34:24.167Z,8.47
2018-12-12T15:39:19.782Z,6.77
2018-12-12T15:44:14.867Z,8.87
2018-12-12T15:49:09.847Z,7.93
2018-12-12T15:54:05.002Z,7.33
2018-12-12T15:59:00.488Z,8.23
2018-12-12T16:03:55.415Z,8.30
2018-12-12T16:08:50.859Z,8.70
2018-12-12T16:13:46.155Z,8.07
2018-12-12T16:18:41.164Z,8.87
2018-12-12T16:23:36.329Z,9.27
2018-12-12T16:28:32.050Z,9.40
2018-12-12T16:33:27.825Z,11.80
2018-12-12T16:38:22.589Z,10.57
2018-12-12T16:43:17.638Z,10.07
2018-12-12T16:48:14.516Z,10.90
2018-12-12T16:53:09.849Z,15.03
2018-12-12T16:58:05.014Z,13.77
2018-12-12T17:03:01.213Z,12.37
2018-12-12T17:07:55.883Z,13.07
2018-12-12T17:12:50.582Z,15.07
2018-12-12T17:17:45.276Z,12.13
2018-12-12T17:22:40.042Z,14.17
2018-12-12T17:27:34.747Z,14.30
2018-12-12T17:32:29.474Z,12.43
2018-12-12T17:37:26.587Z,11.77
2018-12-12T17:42:22.994Z,13.43
2018-12-12T17:47:18.226Z,12.20
2018-12-12T17:52:14.583Z,13.40
2018-12-12T17:57:09.896Z,15.43
2018-12-12T18:02:05.561Z,10.87
2018-12-12T18:07:01.038Z,10.43
2018-12-12T18:11:56.596Z,10.47
2018-12-12T18:16:53.260Z,11.10
2018-12-12T18:21:50.769Z,9.63
2018-12-12T18:26:46.348Z,11.00
2018-12-12T18:31:42.433Z,10.37
2018-12-12T18:36:39.664Z,11.43
2018-12-12T18:41:34.375Z,12.33
2018-12-12T18:46:29.065Z,8.47
2018-12-12T18:51:23.877Z,8.80
2018-12-12T18:56:18.842Z,9.07
2018-12-12T19:01:14.269Z,9.67
2018-12-12T19:06:09.239Z,11.97
2018-12-12T19:11:06.302Z,11.37
2018-12-12T19:16:02.229Z,11.77
2018-12-12T19:21:00.214Z,10.20
2018-12-12T19:25:54.811Z,9.80
2018-12-12T19:30:49.867Z,10.90
2018-12-12T19:35:45.289Z,9.43
2018-12-12T19:40:40.588Z,9.27
2018-12-12T19:45:35.750Z,13.20
2018-12-12T19:50:31.165Z,5.97
2018-12-12T19:55:26.370Z,6.20
2018-12-12T20:00:21.766Z,7.63
2018-12-12T20:05:17.346Z,7.70
2018-12-12T20:10:12.578Z,9.50
2018-12-12T20:15:11.228Z,7.80
2018-12-12T20:20:06.835Z,11.90
2018-12-12T20:25:02.609Z,10.77
2018-12-12T20:29:57.892Z,7.13
2018-12-12T20:34:53.581Z,8.57
2018-12-12T20:39:48.740Z,8.30
2018-12-12T20:44:44.612Z,7.33
2018-12-12T20:49:39.980Z,10.30
2018-12-12T20:54:35.487Z,9.23
2018-12-12T20:59:31.017Z,8.57
2018-12-12T21:04:26.603Z,8.73
2018-12-12T21:09:21.976Z,9.30
2018-12-12T21:14:17.040Z,7.63
2018-12-12T21:19:12.361Z,6.70
2018-12-12T21:24:07.269Z,7.53
2018-12-12T21:29:02.737Z,9.33
2018-12-12T21:33:58.090Z,9.37
2018-12-12T21:38:53.541Z,10.67
2018-12-12T21:43:48.826Z,10.43
2018-12-12T21:48:44.303Z,12.07
2018-12-12T21:53:39.574Z,10.20
2018-12-12T21:58:35.103Z,8.27
2018-12-12T22:03:30.622Z,9.57
2018-12-12T22:08:25.682Z,8.73
2018-12-12T22:13:20.469Z,8.43
2018-12-12T22:18:16.636Z,9.10
2018-12-12T22:23:11.334Z,8.80
2018-12-12T22:28:06.022Z,8.70
2018-12-12T22:33:00.698Z,8.10
2018-12-12T22:37:55.466Z,8.37
2018-12-12T22:42:50.180Z,9.67
2018-12-12T22:47:44.866Z,8.50
2018-12-12T22:52:39.541Z,8.70
2018-12-12T22:57:35.409Z,8.53
2018-12-12T23:02:31.451Z,8.10
2018-12-12T23:07:26.405Z,8.97
2018-12-12T23:12:21.986Z,8.37
2018-12-12T23:17:17.505Z,8.53
2018-12-12T23:22:12.297Z,9.90
2018-12-12T23:27:07.793Z,9.47
2018-12-12T23:32:03.183Z,10.50
2018-12-12T23:36:59.492Z,10.20
2018-12-12T23:41:54.748Z,10.03
2018-12-12T23:46:49.838Z,10.63
2018-12-12T23:51:44.573Z,11.27
2018-12-12T23:56:39.744Z,12.50
